createdAt,value
2022-09-17T00:02:16.246Z,101706.00
2022-09-17T00:04:42.739Z,101705.00
2022-09-17T00:07:09.231Z,101708.00
2022-09-17T00:09:35.725Z,101712.00
2022-09-17T00:12:02.497Z,101707.00
2022-09-17T00:14:28.950Z,101713.00
2022-09-17T00:16:58.755Z,101716.00
2022-09-17T00:19:27.675Z,101713.00
2022-09-17T00:21:54.151Z,101722.00
2022-09-17T00:24:20.912Z,101722.00
2022-09-17T00:26:48.280Z,101728.00
2022-09-17T00:29:14.797Z,101720.00
2022-09-17T00:31:41.392Z,101727.00
2022-09-17T00:34:07.974Z,101723.00
2022-09-17T00:36:35.253Z,101717.00
2022-09-17T00:39:02.068Z,101715.00
2022-09-17T00:41:29.848Z,101717.00
2022-09-17T00:43:57.998Z,101722.00
2022-09-17T00:46:41.905Z,101723.00
2022-09-17T00:49:14.437Z,101724.00
2022-09-17T00:51:43.491Z,101731.00
2022-09-17T00:54:10.573Z,101723.00
2022-09-17T00:56:38.919Z,101725.00
2022-09-17T00:59:05.605Z,101712.00
2022-09-17T01:01:32.362Z,101719.00
2022-09-17T01:03:59.085Z,101718.00
2022-09-17T01:06:43.304Z,101719.00
2022-09-17T01:09:21.909Z,101716.00
2022-09-17T01:11:57.214Z,101712.00
2022-09-17T01:14:23.586Z,101711.00
2022-09-17T01:17:04.046Z,101719.00
2022-09-17T01:19:40.491Z,101726.00
2022-09-17T01:22:27.192Z,101728.00
2022-09-17T01:25:12.477Z,101717.00
2022-09-17T01:27:43.673Z,101719.00
2022-09-17T01:30:18.126Z,101719.00
2022-09-17T01:33:05.056Z,101721.00
2022-09-17T01:35:38.249Z,101722.00
2022-09-17T01:38:11.772Z,101726.00
2022-09-17T01:40:38.381Z,101726.00
2022-09-17T01:43:04.767Z,101724.00
2022-09-17T01:45:31.527Z,101728.00
2022-09-17T01:48:07.073Z,101735.00
2022-09-17T01:50:37.886Z,101723.00
2022-09-17T01:53:05.774Z,101731.00
2022-09-17T01:55:35.632Z,101724.00
2022-09-17T01:58:12.265Z,101726.00
2022-09-17T02:00:39.399Z,101738.00
2022-09-17T02:03:05.897Z,101731.00
2022-09-17T02:05:48.103Z,101740.00
2022-09-17T02:08:14.506Z,101739.00
2022-09-17T02:11:04.739Z,101743.00
2022-09-17T02:13:36.105Z,101739.00
2022-09-17T02:16:05.978Z,101734.00
2022-09-17T02:18:43.361Z,101726.00
2022-09-17T02:21:28.334Z,101736.00
2022-09-17T02:24:03.932Z,101735.00
2022-09-17T02:26:31.791Z,101731.00
2022-09-17T02:29:00.542Z,101727.00
2022-09-17T02:31:27.070Z,101737.00
2022-09-17T02:33:57.055Z,101725.00
2022-09-17T02:36:24.686Z,101731.00
2022-09-17T02:38:57.908Z,101727.00
2022-09-17T02:41:26.269Z,101734.00
2022-09-17T02:43:52.739Z,101738.00
2022-09-17T02:46:31.065Z,101728.00
2022-09-17T02:49:01.362Z,101725.00
2022-09-17T02:51:45.267Z,101737.00
2022-09-17T02:54:27.541Z,101728.00
2022-09-17T02:57:05.986Z,101734.00
2022-09-17T02:59:32.393Z,101737.00
2022-09-17T03:02:02.361Z,101737.00
2022-09-17T03:04:29.648Z,101734.00
2022-09-17T03:06:56.232Z,101740.00
2022-09-17T03:09:22.660Z,101744.00
2022-09-17T03:11:50.087Z,101740.00
2022-09-17T03:14:16.520Z,101750.00
2022-09-17T03:16:42.907Z,101739.00
2022-09-17T03:19:09.476Z,101738.00
2022-09-17T03:21:35.900Z,101749.00
2022-09-17T03:24:02.494Z,101758.00
2022-09-17T03:26:28.912Z,101756.00
2022-09-17T03:28:55.366Z,101762.00
2022-09-17T03:31:21.797Z,101776.00
2022-09-17T03:33:48.602Z,101772.00
2022-09-17T03:36:15.078Z,101759.00
2022-09-17T03:38:41.504Z,101742.00
2022-09-17T03:41:08.042Z,101743.00
2022-09-17T03:43:34.750Z,101737.00
2022-09-17T03:46:01.390Z,101733.00
2022-09-17T03:48:27.894Z,101733.00
2022-09-17T03:50:54.337Z,101735.00
2022-09-17T03:53:20.777Z,101748.00
2022-09-17T03:55:47.240Z,101754.00
2022-09-17T03:58:13.652Z,101761.00
2022-09-17T04:00:40.080Z,101753.00
2022-09-17T04:03:06.593Z,101764.00
2022-09-17T04:05:33.217Z,101764.00
2022-09-17T04:07:59.689Z,101747.00
2022-09-17T04:10:26.122Z,101747.00
2022-09-17T04:12:52.525Z,101756.00
2022-09-17T04:15:18.986Z,101757.00
2022-09-17T04:17:45.383Z,101755.00
2022-09-17T04:20:11.814Z,101757.00
2022-09-17T04:22:38.229Z,101754.00
2022-09-17T04:25:04.832Z,101743.00
2022-09-17T04:27:31.286Z,101753.00
2022-09-17T04:29:57.708Z,101752.00
2022-09-17T04:32:24.147Z,101751.00
2022-09-17T04:34:50.556Z,101747.00
2022-09-17T04:37:17.428Z,101744.00
2022-09-17T04:39:43.847Z,101738.00
2022-09-17T04:42:10.323Z,101746.00
2022-09-17T04:44:36.793Z,101751.00
2022-09-17T04:47:03.227Z,101754.00
2022-09-17T04:49:31.045Z,101753.00
2022-09-17T04:51:57.695Z,101749.00
2022-09-17T04:54:24.281Z,101753.00
2022-09-17T04:56:51.332Z,101753.00
2022-09-17T04:59:17.750Z,101749.00
2022-09-17T05:01:44.443Z,101762.00
2022-09-17T05:04:10.934Z,101755.00
2022-09-17T05:06:37.340Z,101755.00
2022-09-17T05:09:03.835Z,101757.00
2022-09-17T05:11:30.482Z,101760.00
2022-09-17T05:13:56.931Z,101767.00
2022-09-17T05:16:23.518Z,101760.00
2022-09-17T05:18:51.726Z,101767.00
2022-09-17T05:21:19.020Z,101768.00
2022-09-17T05:23:45.416Z,101767.00
2022-09-17T05:26:11.873Z,101774.00
2022-09-17T05:28:38.272Z,101772.00
2022-09-17T05:31:04.790Z,101774.00
2022-09-17T05:33:31.411Z,101779.00
2022-09-17T05:35:57.944Z,101784.00
2022-09-17T05:38:24.402Z,101783.00
2022-09-17T05:40:50.855Z,101778.00
2022-09-17T05:43:17.593Z,101784.00
2022-09-17T05:45:44.203Z,101783.00
2022-09-17T05:48:14.695Z,101774.00
2022-09-17T05:50:41.521Z,101782.00
2022-09-17T05:53:10.296Z,101781.00
2022-09-17T05:55:36.850Z,101780.00
2022-09-17T05:58:13.437Z,101786.00
2022-09-17T06:00:41.059Z,101791.00
2022-09-17T06:03:08.546Z,101791.00
2022-09-17T06:05:35.024Z,101775.00
2022-09-17T06:08:01.585Z,101789.00
2022-09-17T06:10:28.152Z,101792.00
2022-09-17T06:12:58.142Z,101791.00
2022-09-17T06:15:24.946Z,101797.00
2022-09-17T06:17:51.445Z,101791.00
2022-09-17T06:20:17.887Z,101793.00
2022-09-17T06:22:44.377Z,101801.00
2022-09-17T06:25:10.843Z,101790.00
2022-09-17T06:27:37.307Z,101803.00
2022-09-17T06:30:04.400Z,101800.00
2022-09-17T06:32:30.846Z,101813.00
2022-09-17T06:34:57.847Z,101811.00
2022-09-17T06:37:31.282Z,101808.00
2022-09-17T06:39:59.381Z,101812.00
2022-09-17T06:42:26.667Z,101817.00
2022-09-17T06:44:53.125Z,101816.00
2022-09-17T06:47:19.875Z,101817.00
2022-09-17T06:49:46.375Z,101813.00
2022-09-17T06:52:12.842Z,101819.00
2022-09-17T06:54:39.241Z,101815.00
2022-09-17T06:57:05.876Z,101812.00
2022-09-17T06:59:32.398Z,101817.00
2022-09-17T07:01:58.866Z,101813.00
2022-09-17T07:04:25.334Z,101819.00
2022-09-17T07:06:51.868Z,101828.00
2022-09-17T07:09:18.326Z,101822.00
2022-09-17T07:11:44.821Z,101822.00
2022-09-17T07:14:11.211Z,101830.00
2022-09-17T07:16:38.579Z,101824.00
2022-09-17T07:19:05.436Z,101832.00
2022-09-17T07:21:31.937Z,101826.00
2022-09-17T07:23:58.694Z,101821.00
2022-09-17T07:26:25.300Z,101827.00
2022-09-17T07:28:51.771Z,101826.00
2022-09-17T07:31:18.266Z,101825.00
2022-09-17T07:33:45.218Z,101825.00
2022-09-17T07:36:13.100Z,101825.00
2022-09-17T07:38:39.740Z,101832.00
2022-09-17T07:41:07.310Z,101828.00
2022-09-17T07:43:34.581Z,101831.00
2022-09-17T07:46:01.814Z,101831.00
2022-09-17T07:48:28.961Z,101837.00
2022-09-17T07:50:55.382Z,101829.00
2022-09-17T07:53:22.628Z,101831.00
2022-09-17T07:55:53.247Z,101838.00
2022-09-17T07:58:20.518Z,101835.00
2022-09-17T08:00:46.984Z,101835.00
2022-09-17T08:03:13.461Z,101842.00
2022-09-17T08:05:39.933Z,101836.00
2022-09-17T08:08:06.684Z,101836.00
2022-09-17T08:10:33.768Z,101838.00
2022-09-17T08:13:00.812Z,101840.00
2022-09-17T08:15:27.308Z,101843.00
2022-09-17T08:17:53.791Z,101838.00
2022-09-17T08:20:20.619Z,101831.00
2022-09-17T08:22:50.142Z,101833.00
2022-09-17T08:25:17.124Z,101835.00
2022-09-17T08:27:44.245Z,101837.00
2022-09-17T08:30:11.038Z,101848.00
2022-09-17T08:32:37.530Z,101844.00
2022-09-17T08:35:04.079Z,101852.00
2022-09-17T08:37:30.818Z,101844.00
2022-09-17T08:39:58.359Z,101848.00
2022-09-17T08:42:32.758Z,101845.00
2022-09-17T08:45:00.793Z,101849.00
2022-09-17T08:47:27.531Z,101872.00
2022-09-17T08:49:56.014Z,101859.00
2022-09-17T08:52:41.312Z,101860.00
2022-09-17T08:55:26.952Z,101870.00
2022-09-17T08:58:02.360Z,101863.00
2022-09-17T09:00:33.533Z,101878.00
2022-09-17T09:03:06.081Z,101871.00
2022-09-17T09:05:52.890Z,101877.00
2022-09-17T09:08:24.659Z,101864.00
2022-09-17T09:11:02.140Z,101887.00
2022-09-17T09:13:36.478Z,101885.00
2022-09-17T09:16:05.740Z,101881.00
2022-09-17T09:18:35.620Z,101883.00
2022-09-17T09:21:19.748Z,101892.00
2022-09-17T09:23:46.196Z,101887.00
2022-09-17T09:26:22.823Z,101885.00
2022-09-17T09:28:55.113Z,101891.00
2022-09-17T09:31:34.688Z,101892.00
2022-09-17T09:34:02.675Z,101894.00
2022-09-17T09:36:30.267Z,101904.00
2022-09-17T09:38:56.740Z,101890.00
2022-09-17T09:41:55.722Z,101897.00
2022-09-17T09:44:24.388Z,101894.00
2022-09-17T09:47:00.033Z,101903.00
2022-09-17T09:49:41.116Z,101899.00
2022-09-17T09:52:20.017Z,101904.00
2022-09-17T09:54:52.727Z,101899.00
2022-09-17T09:57:22.732Z,101901.00
2022-09-17T09:59:49.160Z,101908.00
2022-09-17T10:02:15.753Z,101908.00
2022-09-17T10:04:42.271Z,101911.00
2022-09-17T10:07:10.117Z,101913.00
2022-09-17T10:09:37.452Z,101919.00
2022-09-17T10:12:04.011Z,101900.00
2022-09-17T10:14:34.535Z,101904.00
2022-09-17T10:17:10.044Z,101907.00
2022-09-17T10:19:36.492Z,101903.00
2022-09-17T10:22:18.779Z,101904.00
2022-09-17T10:24:45.465Z,101906.00
2022-09-17T10:27:16.837Z,101899.00
2022-09-17T10:29:44.762Z,101902.00
2022-09-17T10:32:15.546Z,101897.00
2022-09-17T10:34:43.425Z,101907.00
2022-09-17T10:37:28.694Z,101900.00
2022-09-17T10:39:56.749Z,101911.00
2022-09-17T10:42:23.257Z,101901.00
2022-09-17T10:44:57.282Z,101908.00
2022-09-17T10:47:29.565Z,101912.00
2022-09-17T10:49:57.490Z,101916.00
2022-09-17T10:52:25.793Z,101918.00
2022-09-17T10:55:18.712Z,101913.00
2022-09-17T10:58:08.861Z,101904.00
2022-09-17T11:01:00.330Z,101902.00
2022-09-17T11:03:49.257Z,101909.00
2022-09-17T11:06:28.117Z,101903.00
2022-09-17T11:09:00.604Z,101910.00
2022-09-17T11:11:49.445Z,101905.00
2022-09-17T11:14:15.875Z,101905.00
2022-09-17T11:17:00.638Z,101902.00
2022-09-17T11:19:40.744Z,101905.00
2022-09-17T11:22:23.300Z,101901.00
2022-09-17T11:27:53.941Z,101898.00
2022-09-17T11:30:24.225Z,101893.00
2022-09-17T11:32:56.719Z,101896.00
2022-09-17T11:35:26.247Z,101905.00
2022-09-17T11:37:59.804Z,101906.00
2022-09-17T11:40:39.143Z,101904.00
2022-09-17T11:43:12.905Z,101910.00
2022-09-17T11:45:41.315Z,101897.00
2022-09-17T11:48:12.487Z,101901.00
2022-09-17T11:50:48.198Z,101900.00
2022-09-17T11:53:20.248Z,101909.00
2022-09-17T11:55:49.188Z,101898.00
2022-09-17T11:58:27.932Z,101909.00
2022-09-17T12:01:23.792Z,101905.00
2022-09-17T12:04:01.550Z,101910.00
2022-09-17T12:06:46.857Z,101911.00
2022-09-17T12:09:19.682Z,101920.00
2022-09-17T12:11:50.754Z,101917.00
2022-09-17T12:14:21.853Z,101911.00
2022-09-17T12:16:50.721Z,101916.00
2022-09-17T12:19:35.884Z,101897.00
2022-09-17T12:22:11.581Z,101912.00
2022-09-17T12:24:38.559Z,101910.00
2022-09-17T12:27:19.016Z,101913.00
2022-09-17T12:29:51.860Z,101905.00
2022-09-17T12:32:33.531Z,101905.00
2022-09-17T12:35:06.164Z,101903.00
2022-09-17T12:37:32.667Z,101904.00
2022-09-17T12:40:10.354Z,101900.00
2022-09-17T12:42:48.073Z,101901.00
2022-09-17T12:45:14.508Z,101898.00
2022-09-17T12:47:44.036Z,101902.00
2022-09-17T12:50:18.347Z,101898.00
2022-09-17T12:53:00.112Z,101910.00
2022-09-17T12:55:49.893Z,101905.00
2022-09-17T12:58:31.672Z,101903.00
2022-09-17T13:01:07.465Z,101900.00
2022-09-17T13:03:42.676Z,101900.00
2022-09-17T13:06:09.216Z,101900.00
2022-09-17T13:08:35.667Z,101904.00
2022-09-17T13:11:21.463Z,101896.00
2022-09-17T13:14:03.146Z,101889.00
2022-09-17T13:16:36.827Z,101890.00
2022-09-17T13:19:16.098Z,101893.00
2022-09-17T13:21:49.760Z,101888.00
2022-09-17T13:24:17.795Z,101885.00
2022-09-17T13:26:45.837Z,101892.00
2022-09-17T13:29:13.878Z,101892.00
2022-09-17T13:31:42.138Z,101897.00
2022-09-17T13:34:17.978Z,101898.00
2022-09-17T13:36:47.530Z,101893.00
2022-09-17T13:39:33.055Z,101904.00
2022-09-17T13:42:06.077Z,101908.00
2022-09-17T13:44:34.720Z,101899.00
2022-09-17T13:47:24.421Z,101898.00
2022-09-17T13:49:53.028Z,101893.00
2022-09-17T13:52:36.530Z,101900.00
2022-09-17T13:55:03.382Z,101891.00
2022-09-17T13:57:33.512Z,101894.00
2022-09-17T14:00:00.915Z,101897.00
2022-09-17T14:02:30.977Z,101882.00
2022-09-17T14:05:18.056Z,101899.00
2022-09-17T14:07:49.478Z,101902.00
2022-09-17T14:10:15.917Z,101898.00
2022-09-17T14:12:47.614Z,101900.00
2022-09-17T14:15:32.620Z,101893.00
2022-09-17T14:17:59.598Z,101895.00
2022-09-17T14:20:29.050Z,101880.00
2022-09-17T14:23:02.267Z,101896.00
2022-09-17T14:25:40.228Z,101908.00
2022-09-17T14:28:25.399Z,101899.00
2022-09-17T14:30:52.631Z,101912.00
2022-09-17T14:33:21.670Z,101918.00
2022-09-17T14:35:50.230Z,101901.00
2022-09-17T14:38:35.879Z,101908.00
2022-09-17T14:41:07.669Z,101905.00
2022-09-17T14:43:56.263Z,101919.00
2022-09-17T14:46:28.822Z,101918.00
2022-09-17T14:48:55.316Z,101914.00
2022-09-17T14:51:25.967Z,101931.00
2022-09-17T14:54:05.749Z,101925.00
2022-09-17T14:56:33.453Z,101920.00
2022-09-17T14:59:00.016Z,101914.00
2022-09-17T15:01:28.146Z,101926.00
2022-09-17T15:04:13.035Z,101913.00
2022-09-17T15:06:43.558Z,101912.00
2022-09-17T15:09:19.678Z,101919.00
2022-09-17T15:11:48.093Z,101915.00
2022-09-17T15:14:20.755Z,101909.00
2022-09-17T15:16:52.745Z,101901.00
2022-09-17T15:19:23.073Z,101902.00
2022-09-17T15:21:50.211Z,101902.00
2022-09-17T15:24:23.157Z,101905.00
2022-09-17T15:26:52.366Z,101909.00
2022-09-17T15:29:21.525Z,101900.00
2022-09-17T15:31:48.055Z,101900.00
2022-09-17T15:34:14.594Z,101894.00
2022-09-17T15:36:41.057Z,101897.00
2022-09-17T15:39:27.504Z,101897.00
2022-09-17T15:41:57.493Z,101898.00
2022-09-17T15:44:29.671Z,101894.00
2022-09-17T15:47:16.435Z,101899.00
2022-09-17T15:49:43.713Z,101904.00
2022-09-17T15:52:31.668Z,101911.00
2022-09-17T15:55:01.436Z,101900.00
2022-09-17T15:57:29.322Z,101911.00
2022-09-17T15:59:56.298Z,101909.00
2022-09-17T16:02:30.467Z,101902.00
2022-09-17T16:05:16.758Z,101896.00
2022-09-17T16:07:44.919Z,101900.00
2022-09-17T16:10:12.270Z,101892.00
2022-09-17T16:12:38.885Z,101894.00
2022-09-17T16:15:05.986Z,101897.00
2022-09-17T16:17:47.917Z,101892.00
2022-09-17T16:20:16.057Z,101886.00
2022-09-17T16:22:43.248Z,101879.00
2022-09-17T16:25:10.717Z,101883.00
2022-09-17T16:27:43.213Z,101892.00
2022-09-17T16:30:13.702Z,101895.00
2022-09-17T16:32:40.159Z,101897.00
2022-09-17T16:35:06.868Z,101895.00
2022-09-17T16:37:33.301Z,101898.00
2022-09-17T16:40:01.058Z,101899.00
2022-09-17T16:42:30.385Z,101900.00
2022-09-17T16:44:56.958Z,101909.00
2022-09-17T16:47:23.466Z,101906.00
2022-09-17T16:49:49.921Z,101907.00
2022-09-17T16:52:16.352Z,101903.00
2022-09-17T16:54:42.806Z,101915.00
2022-09-17T16:57:09.320Z,101911.00
2022-09-17T16:59:35.759Z,101908.00
2022-09-17T17:02:02.414Z,101921.00
2022-09-17T17:04:29.037Z,101915.00
2022-09-17T17:06:55.440Z,101913.00
2022-09-17T17:09:21.872Z,101904.00
2022-09-17T17:11:48.287Z,101905.00
2022-09-17T17:14:15.083Z,101911.00
2022-09-17T17:16:43.550Z,101917.00
2022-09-17T17:19:10.039Z,101917.00
2022-09-17T17:21:36.467Z,101912.00
2022-09-17T17:24:03.291Z,101921.00
2022-09-17T17:26:30.348Z,101923.00
2022-09-17T17:28:56.841Z,101924.00
2022-09-17T17:31:23.417Z,101916.00
2022-09-17T17:33:49.999Z,101913.00
2022-09-17T17:36:16.447Z,101909.00
2022-09-17T17:38:43.047Z,101923.00
2022-09-17T17:41:10.922Z,101925.00
2022-09-17T17:43:37.780Z,101915.00
2022-09-17T17:46:08.512Z,101917.00
2022-09-17T17:48:35.297Z,101921.00
2022-09-17T17:51:06.474Z,101927.00
2022-09-17T17:53:33.239Z,101931.00
2022-09-17T17:56:00.686Z,101924.00
2022-09-17T17:58:27.561Z,101918.00
2022-09-17T18:00:54.044Z,101927.00
2022-09-17T18:03:24.866Z,101925.00
2022-09-17T18:05:57.908Z,101931.00
2022-09-17T18:08:24.715Z,101934.00
2022-09-17T18:10:52.794Z,101927.00
2022-09-17T18:13:19.283Z,101922.00
2022-09-17T18:15:53.064Z,101928.00
2022-09-17T18:18:20.047Z,101931.00
2022-09-17T18:20:46.503Z,101933.00
2022-09-17T18:23:13.036Z,101939.00
2022-09-17T18:25:59.866Z,101930.00
2022-09-17T18:28:27.323Z,101942.00
2022-09-17T18:30:54.244Z,101938.00
2022-09-17T18:33:25.005Z,101936.00
2022-09-17T18:35:53.405Z,101937.00
2022-09-17T18:38:19.882Z,101939.00
2022-09-17T18:40:46.395Z,101936.00
2022-09-17T18:43:12.846Z,101943.00
2022-09-17T18:45:39.346Z,101942.00
2022-09-17T18:48:06.315Z,101955.00
2022-09-17T18:50:32.797Z,101955.00
2022-09-17T18:52:59.327Z,101951.00
2022-09-17T18:55:25.987Z,101956.00
2022-09-17T18:57:52.731Z,101968.00
2022-09-17T19:00:20.452Z,101958.00
2022-09-17T19:02:50.038Z,101963.00
2022-09-17T19:05:17.107Z,101960.00
2022-09-17T19:07:44.523Z,101957.00
2022-09-17T19:10:11.126Z,101958.00
2022-09-17T19:12:38.049Z,101971.00
2022-09-17T19:15:05.079Z,101955.00
2022-09-17T19:17:31.543Z,101961.00
2022-09-17T19:19:58.037Z,101970.00
2022-09-17T19:22:24.480Z,101972.00
2022-09-17T19:24:50.927Z,101967.00
2022-09-17T19:27:17.620Z,101964.00
2022-09-17T19:29:44.037Z,101973.00
2022-09-17T19:32:11.147Z,101972.00
2022-09-17T19:34:37.619Z,101976.00
2022-09-17T19:37:04.118Z,101977.00
2022-09-17T19:39:30.597Z,101973.00
2022-09-17T19:41:57.055Z,101971.00
2022-09-17T19:44:24.013Z,101976.00
2022-09-17T19:46:52.924Z,101974.00
2022-09-17T19:49:19.531Z,101977.00
2022-09-17T19:51:45.998Z,101978.00
2022-09-17T19:54:12.428Z,101978.00
2022-09-17T19:56:38.975Z,101979.00
2022-09-17T19:59:05.476Z,101982.00
2022-09-17T20:01:32.147Z,101986.00
2022-09-17T20:03:58.604Z,101980.00
2022-09-17T20:06:25.027Z,101976.00
2022-09-17T20:08:52.307Z,101984.00
2022-09-17T20:11:19.545Z,101982.00
2022-09-17T20:13:46.092Z,101985.00
2022-09-17T20:16:14.363Z,101978.00
2022-09-17T20:18:41.143Z,101970.00
2022-09-17T20:21:15.567Z,101979.00
2022-09-17T20:23:42.132Z,101980.00
2022-09-17T20:26:09.308Z,101971.00
2022-09-17T20:28:35.853Z,101975.00
2022-09-17T20:31:12.673Z,101981.00
2022-09-17T20:33:39.410Z,101975.00
2022-09-17T20:36:07.459Z,101977.00
2022-09-17T20:39:10.185Z,101974.00
2022-09-17T20:41:20.886Z,101977.00
2022-09-17T20:43:51.533Z,101975.00
2022-09-17T20:46:18.694Z,101971.00
2022-09-17T20:48:45.432Z,101975.00
2022-09-17T20:51:13.502Z,101979.00
2022-09-17T20:53:40.440Z,101977.00
2022-09-17T20:56:08.233Z,101974.00
2022-09-17T20:58:36.087Z,101975.00
2022-09-17T21:01:06.771Z,101979.00
2022-09-17T21:03:33.336Z,101971.00
2022-09-17T21:06:00.007Z,101976.00
2022-09-17T21:08:26.891Z,101970.00
2022-09-17T21:10:53.454Z,101959.00
2022-09-17T21:13:19.883Z,101966.00
2022-09-17T21:15:59.546Z,101970.00
2022-09-17T21:18:26.459Z,101975.00
2022-09-17T21:20:53.121Z,101975.00
2022-09-17T21:23:26.656Z,101981.00
2022-09-17T21:25:53.246Z,101973.00
2022-09-17T21:28:20.562Z,101973.00
2022-09-17T21:30:47.745Z,101973.00
2022-09-17T21:33:21.916Z,101972.00
2022-09-17T21:35:51.539Z,101974.00
2022-09-17T21:38:20.922Z,101978.00
2022-09-17T21:40:57.085Z,101972.00
2022-09-17T21:43:24.199Z,101978.00
2022-09-17T21:46:00.576Z,101981.00
2022-09-17T21:48:27.084Z,101972.00
2022-09-17T21:50:53.791Z,101985.00
2022-09-17T21:53:20.388Z,101983.00
2022-09-17T21:55:46.832Z,101976.00
2022-09-17T21:58:13.482Z,101980.00
2022-09-17T22:00:39.872Z,101981.00
2022-09-17T22:03:06.494Z,101976.00
2022-09-17T22:05:33.107Z,101977.00
2022-09-17T22:07:59.492Z,101982.00
2022-09-17T22:10:26.131Z,101969.00
2022-09-17T22:12:52.688Z,101969.00
2022-09-17T22:15:19.085Z,101970.00
2022-09-17T22:17:45.690Z,101970.00
2022-09-17T22:20:12.199Z,101973.00
2022-09-17T22:22:38.704Z,101966.00
2022-09-17T22:25:05.506Z,101967.00
2022-09-17T22:27:32.374Z,101965.00
2022-09-17T22:29:58.811Z,101962.00
2022-09-17T22:32:25.184Z,101968.00
2022-09-17T22:34:53.069Z,101968.00
2022-09-17T22:37:19.752Z,101972.00
2022-09-17T22:39:46.182Z,101974.00
2022-09-17T22:42:12.634Z,101974.00
2022-09-17T22:44:39.108Z,101967.00
2022-09-17T22:47:05.703Z,101963.00
2022-09-17T22:49:32.169Z,101964.00
2022-09-17T22:51:58.613Z,101958.00
2022-09-17T22:54:25.059Z,101962.00
2022-09-17T22:56:51.576Z,101966.00
2022-09-17T22:59:18.415Z,101961.00
2022-09-17T23:01:45.189Z,101957.00
2022-09-17T23:04:11.778Z,101961.00
2022-09-17T23:06:39.317Z,101950.00
2022-09-17T23:09:06.302Z,101962.00
2022-09-17T23:11:34.233Z,101960.00
2022-09-17T23:14:02.351Z,101964.00
2022-09-17T23:16:29.225Z,101956.00
2022-09-17T23:18:56.856Z,101952.00
2022-09-17T23:21:23.250Z,101944.00
2022-09-17T23:23:51.612Z,101945.00
2022-09-17T23:26:19.699Z,101950.00
2022-09-17T23:28:46.333Z,101937.00
2022-09-17T23:31:14.103Z,101934.00
2022-09-17T23:33:41.093Z,101931.00
2022-09-17T23:36:09.219Z,101930.00
2022-09-17T23:38:35.957Z,101929.00
2022-09-17T23:41:22.368Z,101934.00
2022-09-17T23:43:53.276Z,101937.00
2022-09-17T23:46:20.579Z,101934.00
2022-09-17T23:48:47.428Z,101938.00
2022-09-17T23:51:13.905Z,101923.00
2022-09-17T23:53:40.575Z,101929.00
2022-09-17T23:56:11.211Z,101927.00
2022-09-17T23:58:37.621Z,101926.00
